createdAt,value
2019-05-05T00:01:27.224Z,101959.23
2019-05-05T00:04:16.175Z,101956.66
2019-05-05T00:06:45.404Z,101961.32
2019-05-05T00:09:14.779Z,101957.83
2019-05-05T00:12:05.316Z,101960.80
2019-05-05T00:14:45.003Z,101956.20
2019-05-05T00:17:18.744Z,101963.50
2019-05-05T00:19:48.053Z,101965.98
2019-05-05T00:22:17.215Z,101974.17
2019-05-05T00:24:46.489Z,101970.41
2019-05-05T00:27:15.683Z,101970.83
2019-05-05T00:29:45.445Z,101975.29
2019-05-05T00:32:15.256Z,101974.97
2019-05-05T00:34:44.695Z,101975.04
2019-05-05T00:37:15.234Z,101978.84
2019-05-05T00:39:45.164Z,101980.69
2019-05-05T00:42:15.550Z,101981.54
2019-05-05T00:44:44.881Z,101979.35
2019-05-05T00:47:21.319Z,101986.06
2019-05-05T00:49:52.138Z,101992.59
2019-05-05T00:52:21.360Z,101993.70
2019-05-05T00:54:50.549Z,101992.98
2019-05-05T00:57:19.767Z,101993.66
2019-05-05T00:59:49.028Z,101995.39
2019-05-05T01:02:19.827Z,101997.84
2019-05-05T01:05:05.287Z,101998.90
2019-05-05T01:07:35.138Z,102001.77
2019-05-05T01:10:06.605Z,102001.14
2019-05-05T01:12:35.954Z,102004.41
2019-05-05T01:15:05.623Z,102008.22
2019-05-05T01:17:34.866Z,102005.65
2019-05-05T01:20:07.050Z,102010.00
2019-05-05T01:22:36.475Z,102010.94
2019-05-05T01:25:07.014Z,102009.92
2019-05-05T01:27:36.257Z,102010.90
2019-05-05T01:30:15.186Z,102011.49
2019-05-05T01:33:05.478Z,102007.95
2019-05-05T01:35:34.919Z,102002.22
2019-05-05T01:38:14.954Z,102009.26
2019-05-05T01:40:51.915Z,102018.84
2019-05-05T01:43:21.099Z,102023.14
2019-05-05T01:45:50.309Z,102019.48
2019-05-05T01:48:19.554Z,102022.41
2019-05-05T01:50:48.726Z,102017.45
2019-05-05T01:53:17.956Z,102017.80
2019-05-05T01:55:47.156Z,102014.81
2019-05-05T01:58:16.858Z,102011.84
2019-05-05T02:00:46.075Z,102013.48
2019-05-05T02:03:15.255Z,102013.58
2019-05-05T02:05:45.269Z,102024.08
2019-05-05T02:08:15.296Z,102021.41
2019-05-05T02:10:45.368Z,102021.88
2019-05-05T02:13:16.106Z,102024.64
2019-05-05T02:15:45.378Z,102020.52
2019-05-05T02:18:14.961Z,102024.72
2019-05-05T02:21:01.056Z,102031.75
2019-05-05T02:23:30.169Z,102034.52
2019-05-05T02:25:59.341Z,102040.75
2019-05-05T02:28:30.203Z,102042.81
2019-05-05T02:31:05.600Z,102047.98
2019-05-05T02:33:35.452Z,102054.01
2019-05-05T02:36:05.739Z,102055.44
2019-05-05T02:38:35.662Z,102050.00
2019-05-05T02:41:05.296Z,102047.20
2019-05-05T02:43:35.004Z,102050.31
2019-05-05T02:46:07.117Z,102053.42
2019-05-05T02:48:36.687Z,102053.73
2019-05-05T02:51:07.253Z,102050.37
2019-05-05T02:53:40.772Z,102039.52
2019-05-05T02:56:11.878Z,102042.06
2019-05-05T02:58:41.111Z,102043.81
2019-05-05T03:01:20.723Z,102045.89
2019-05-05T03:03:50.021Z,102051.14
2019-05-05T03:06:19.215Z,102057.69
2019-05-05T03:08:48.585Z,102056.09
2019-05-05T03:11:17.879Z,102063.75
2019-05-05T03:13:47.061Z,102059.95
2019-05-05T03:16:18.767Z,102064.01
2019-05-05T03:18:48.044Z,102063.70
2019-05-05T03:21:17.975Z,102064.19
2019-05-05T03:23:47.182Z,102056.99
2019-05-05T03:26:16.522Z,102052.27
2019-05-05T03:28:50.341Z,102040.31
2019-05-05T03:31:19.562Z,102044.92
2019-05-05T03:33:48.777Z,102042.78
2019-05-05T03:36:18.266Z,102045.41
2019-05-05T03:38:47.528Z,102039.38
2019-05-05T03:41:21.072Z,102051.17
2019-05-05T03:44:06.748Z,102050.80
2019-05-05T03:46:36.727Z,102051.84
2019-05-05T03:49:06.386Z,102056.91
2019-05-05T03:51:35.654Z,102057.00
2019-05-05T03:54:04.904Z,102065.28
2019-05-05T03:56:34.745Z,102065.95
2019-05-05T03:59:04.927Z,102062.22
2019-05-05T04:01:56.479Z,102059.09
2019-05-05T04:04:27.343Z,102057.83
2019-05-05T04:06:58.188Z,102066.16
2019-05-05T04:09:28.270Z,102059.33
2019-05-05T04:11:57.627Z,102066.97
2019-05-05T04:14:26.847Z,102069.48
2019-05-05T04:16:57.677Z,102077.52
2019-05-05T04:19:28.482Z,102078.63
2019-05-05T04:21:57.717Z,102081.02
2019-05-05T04:24:26.964Z,102077.66
2019-05-05T04:26:56.333Z,102076.92
2019-05-05T04:29:25.551Z,102079.67
2019-05-05T04:31:54.783Z,102087.41
2019-05-05T04:34:24.174Z,102095.83
2019-05-05T04:36:54.638Z,102104.27
2019-05-05T04:39:23.736Z,102106.14
2019-05-05T04:41:54.600Z,102104.67
2019-05-05T04:44:23.833Z,102107.45
2019-05-05T04:46:54.709Z,102112.13
2019-05-05T04:49:28.105Z,102113.70
2019-05-05T04:52:14.372Z,102114.47
2019-05-05T04:54:45.374Z,102120.38
2019-05-05T04:57:15.010Z,102119.40
2019-05-05T04:59:44.539Z,102122.89
2019-05-05T05:02:18.454Z,102126.98
2019-05-05T05:04:53.558Z,102124.33
2019-05-05T05:07:24.189Z,102124.69
2019-05-05T05:09:53.994Z,102123.80
2019-05-05T05:12:23.815Z,102132.91
2019-05-05T05:14:54.658Z,102136.08
2019-05-05T05:17:25.599Z,102138.98
2019-05-05T05:19:54.787Z,102138.70
2019-05-05T05:22:24.432Z,102139.88
2019-05-05T05:24:54.224Z,102150.48
2019-05-05T05:27:24.482Z,102148.56
2019-05-05T05:29:54.357Z,102156.02
2019-05-05T05:32:24.760Z,102149.20
2019-05-05T05:34:54.403Z,102162.64
2019-05-05T05:37:24.110Z,102156.34
2019-05-05T05:39:58.067Z,102152.09
2019-05-05T05:42:27.247Z,102153.27
2019-05-05T05:45:14.561Z,102151.73
2019-05-05T05:48:00.516Z,102152.13
2019-05-05T05:50:44.336Z,102159.45
2019-05-05T05:53:14.049Z,102156.48
2019-05-05T05:55:44.783Z,102160.38
2019-05-05T05:58:14.243Z,102159.92
2019-05-05T06:00:44.416Z,102162.81
2019-05-05T06:03:14.141Z,102162.30
2019-05-05T06:05:43.748Z,102169.24
2019-05-05T06:08:14.215Z,102170.07
2019-05-05T06:10:44.260Z,102177.77
2019-05-05T06:13:15.382Z,102173.64
2019-05-05T06:15:44.838Z,102178.38
2019-05-05T06:18:14.052Z,102181.47
2019-05-05T06:20:44.550Z,102185.24
2019-05-05T06:23:14.682Z,102186.55
2019-05-05T06:25:44.844Z,102191.23
2019-05-05T06:28:14.667Z,102192.87
2019-05-05T06:30:44.450Z,102199.45
2019-05-05T06:33:14.182Z,102205.91
2019-05-05T06:35:44.275Z,102202.27
2019-05-05T06:38:13.814Z,102203.21
2019-05-05T06:41:00.670Z,102205.54
2019-05-05T06:43:40.412Z,102209.61
2019-05-05T06:46:11.298Z,102207.52
2019-05-05T06:48:40.567Z,102211.51
2019-05-05T06:51:09.763Z,102218.91
2019-05-05T06:53:38.983Z,102221.00
2019-05-05T06:56:08.184Z,102221.63
2019-05-05T06:58:37.366Z,102218.05
2019-05-05T07:01:06.607Z,102218.84
2019-05-05T07:03:35.815Z,102219.25
2019-05-05T07:06:04.995Z,102222.16
2019-05-05T07:08:34.847Z,102222.97
2019-05-05T07:11:04.301Z,102219.01
2019-05-05T07:13:34.055Z,102229.79
2019-05-05T07:16:04.829Z,102230.80
2019-05-05T07:18:34.325Z,102230.34
2019-05-05T07:21:03.911Z,102228.42
2019-05-05T07:23:34.067Z,102230.46
2019-05-05T07:26:04.277Z,102234.22
2019-05-05T07:28:34.184Z,102237.35
2019-05-05T07:31:04.436Z,102233.75
2019-05-05T07:33:34.585Z,102234.13
2019-05-05T07:36:21.755Z,102238.21
2019-05-05T07:38:51.014Z,102236.22
2019-05-05T07:41:20.332Z,102242.13
2019-05-05T07:43:49.590Z,102239.05
2019-05-05T07:46:18.796Z,102247.56
2019-05-05T07:48:47.963Z,102244.32
2019-05-05T07:51:17.276Z,102237.30
2019-05-05T07:53:46.533Z,102240.69
2019-05-05T07:56:15.750Z,102234.19
2019-05-05T07:58:44.958Z,102233.64
2019-05-05T08:01:14.320Z,102230.61
2019-05-05T08:03:44.535Z,102228.38
2019-05-05T08:06:14.547Z,102220.19
2019-05-05T08:08:44.475Z,102226.12
2019-05-05T08:11:39.349Z,102225.62
2019-05-05T08:14:08.596Z,102225.99
2019-05-05T08:16:57.257Z,102223.34
2019-05-05T08:19:34.719Z,102228.48
2019-05-05T08:22:04.180Z,102241.52
2019-05-05T08:24:51.216Z,102267.81
2019-05-05T08:27:22.059Z,102250.95
2019-05-05T08:29:54.278Z,102239.16
2019-05-05T08:32:25.274Z,102236.06
2019-05-05T08:35:00.014Z,102238.97
2019-05-05T08:37:25.446Z,102239.39
2019-05-05T08:39:54.731Z,102236.93
2019-05-05T08:42:24.718Z,102233.73
2019-05-05T08:44:54.003Z,102237.20
2019-05-05T08:47:24.596Z,102237.02
2019-05-05T08:49:54.211Z,102235.26
2019-05-05T08:52:23.896Z,102243.69
2019-05-05T08:54:54.121Z,102246.09
2019-05-05T08:57:23.681Z,102243.00
2019-05-05T08:59:54.461Z,102244.06
2019-05-05T09:02:24.060Z,102238.44
2019-05-05T09:04:53.898Z,102248.42
2019-05-05T09:07:24.315Z,102247.59
2019-05-05T09:09:54.668Z,102258.94
2019-05-05T09:12:24.077Z,102272.73
2019-05-05T09:14:53.982Z,102264.63
2019-05-05T09:17:24.364Z,102268.64
2019-05-05T09:19:54.157Z,102275.20
2019-05-05T09:22:24.572Z,102268.83
2019-05-05T09:24:58.502Z,102266.76
2019-05-05T09:27:41.389Z,102264.45
2019-05-05T09:30:14.219Z,102264.66
2019-05-05T09:32:43.846Z,102254.34
2019-05-05T09:35:13.926Z,102256.23
2019-05-05T09:37:44.333Z,102255.50
2019-05-05T09:40:13.965Z,102254.67
2019-05-05T09:42:44.335Z,102259.00
2019-05-05T09:45:14.062Z,102254.87
2019-05-05T09:47:44.996Z,102258.16
2019-05-05T09:50:14.497Z,102255.19
2019-05-05T09:52:44.408Z,102250.77
2019-05-05T09:55:13.963Z,102254.66
2019-05-05T09:57:43.915Z,102257.86
2019-05-05T10:00:14.429Z,102259.70
2019-05-05T10:02:44.287Z,102262.97
2019-05-05T10:05:14.549Z,102268.09
2019-05-05T10:07:44.160Z,102275.00
2019-05-05T10:10:13.856Z,102277.28
2019-05-05T10:12:44.610Z,102276.77
2019-05-05T10:15:13.838Z,102272.37
2019-05-05T10:17:44.032Z,102277.87
2019-05-05T10:20:14.511Z,102281.21
2019-05-05T10:22:43.819Z,102271.53
2019-05-05T10:25:34.357Z,102276.20
2019-05-05T10:28:04.345Z,102273.95
2019-05-05T10:30:34.294Z,102283.89
2019-05-05T10:33:03.857Z,102278.11
2019-05-05T10:35:34.444Z,102277.34
2019-05-05T10:38:03.127Z,102284.37
2019-05-05T10:40:34.063Z,102288.58
2019-05-05T10:43:04.411Z,102287.57
2019-05-05T10:45:33.404Z,102286.44
2019-05-05T10:48:04.067Z,102289.45
2019-05-05T10:50:34.326Z,102289.95
2019-05-05T10:53:04.672Z,102296.91
2019-05-05T10:55:34.705Z,102299.05
2019-05-05T10:58:04.437Z,102295.09
2019-05-05T11:00:49.139Z,102297.63
2019-05-05T11:03:18.407Z,102295.33
2019-05-05T11:05:47.757Z,102300.50
2019-05-05T11:08:17.053Z,102295.67
2019-05-05T11:10:46.256Z,102293.44
2019-05-05T11:13:15.535Z,102286.31
2019-05-05T11:15:44.783Z,102290.09
2019-05-05T11:18:14.982Z,102291.11
2019-05-05T11:20:45.203Z,102300.77
2019-05-05T11:23:15.108Z,102314.98
2019-05-05T11:25:44.682Z,102321.11
2019-05-05T11:28:14.222Z,102333.99
2019-05-05T11:30:46.091Z,102333.67
2019-05-05T11:33:34.857Z,102336.67
2019-05-05T11:36:23.890Z,102335.02
2019-05-05T11:38:53.662Z,102333.77
2019-05-05T11:41:24.261Z,102332.14
2019-05-05T11:43:53.433Z,102326.70
2019-05-05T11:46:24.760Z,102332.70
2019-05-05T11:48:54.347Z,102334.61
2019-05-05T11:51:24.973Z,102335.37
2019-05-05T11:53:54.132Z,102332.92
2019-05-05T11:56:23.417Z,102319.25
2019-05-05T11:58:54.487Z,102317.50
2019-05-05T12:01:24.298Z,102317.70
2019-05-05T12:03:53.733Z,102310.59
2019-05-05T12:06:24.646Z,102308.23
2019-05-05T12:08:53.925Z,102296.26
2019-05-05T12:11:24.033Z,102298.36
2019-05-05T12:13:54.657Z,102304.08
2019-05-05T12:16:30.771Z,102303.92
2019-05-05T12:19:01.883Z,102309.22
2019-05-05T12:21:31.116Z,102306.18
2019-05-05T12:24:03.814Z,102315.55
2019-05-05T12:26:34.825Z,102307.77
2019-05-05T12:29:05.924Z,102316.01
2019-05-05T12:31:36.767Z,102322.70
2019-05-05T12:34:06.017Z,102333.61
2019-05-05T12:36:35.212Z,102340.56
2019-05-05T12:39:07.191Z,102344.28
2019-05-05T12:41:36.539Z,102337.97
2019-05-05T12:44:07.377Z,102333.25
2019-05-05T12:46:38.278Z,102342.64
2019-05-05T12:49:09.169Z,102335.28
2019-05-05T12:51:38.756Z,102333.42
2019-05-05T12:54:07.913Z,102334.97
2019-05-05T12:56:37.129Z,102333.82
2019-05-05T12:59:08.001Z,102331.80
2019-05-05T13:01:38.829Z,102325.58
2019-05-05T13:04:08.012Z,102332.12
2019-05-05T13:06:37.508Z,102325.25
2019-05-05T13:09:07.638Z,102325.77
2019-05-05T13:11:37.114Z,102321.45
2019-05-05T13:14:06.376Z,102316.10
2019-05-05T13:16:35.646Z,102314.16
2019-05-05T13:19:06.853Z,102312.00
2019-05-05T13:21:49.556Z,102301.48
2019-05-05T13:24:20.388Z,102295.69
2019-05-05T13:26:54.195Z,102294.45
2019-05-05T13:29:24.581Z,102294.97
2019-05-05T13:31:54.428Z,102290.23
2019-05-05T13:34:23.965Z,102275.54
2019-05-05T13:36:53.127Z,102276.02
2019-05-05T13:39:24.562Z,102277.88
2019-05-05T13:41:53.976Z,102264.44
2019-05-05T13:44:24.947Z,102270.06
2019-05-05T13:46:54.147Z,102266.62
2019-05-05T13:49:36.735Z,102262.52
2019-05-05T13:52:05.916Z,102267.20
2019-05-05T13:54:35.157Z,102267.50
2019-05-05T13:57:04.374Z,102261.03
2019-05-05T13:59:34.066Z,102260.56
2019-05-05T14:02:03.402Z,102260.70
2019-05-05T14:04:34.384Z,102256.59
2019-05-05T14:07:04.138Z,102262.64
2019-05-05T14:09:33.422Z,102258.50
2019-05-05T14:12:04.104Z,102258.71
2019-05-05T14:14:33.651Z,102261.15
2019-05-05T14:17:04.115Z,102260.97
2019-05-05T14:19:34.066Z,102257.13
2019-05-05T14:22:04.486Z,102257.77
2019-05-05T14:24:38.649Z,102257.52
2019-05-05T14:27:07.966Z,102257.73
2019-05-05T14:29:38.896Z,102249.79
2019-05-05T14:32:09.559Z,102244.45
2019-05-05T14:34:49.176Z,102244.95
2019-05-05T14:37:28.765Z,102236.39
2019-05-05T14:39:58.200Z,102242.98
2019-05-05T14:42:27.387Z,102239.81
2019-05-05T14:44:56.656Z,102237.13
2019-05-05T14:47:26.276Z,102248.66
2019-05-05T14:49:55.454Z,102246.25
2019-05-05T14:52:24.901Z,102250.42
2019-05-05T14:54:54.481Z,102259.25
2019-05-05T14:57:25.354Z,102263.87
2019-05-05T14:59:54.597Z,102256.87
2019-05-05T15:02:24.519Z,102264.00
2019-05-05T15:04:55.526Z,102272.64
2019-05-05T15:07:30.076Z,102276.06
2019-05-05T15:10:04.269Z,102279.98
2019-05-05T15:12:38.134Z,102283.89
2019-05-05T15:15:07.768Z,102284.05
2019-05-05T15:17:37.012Z,102285.49
2019-05-05T15:20:07.761Z,102296.45
2019-05-05T15:22:36.942Z,102299.34
2019-05-05T15:25:07.084Z,102303.28
2019-05-05T15:27:36.372Z,102306.78
2019-05-05T15:30:07.696Z,102316.92
2019-05-05T15:32:36.900Z,102314.41
2019-05-05T15:35:07.440Z,102319.90
2019-05-05T15:37:35.965Z,102322.74
2019-05-05T15:40:05.805Z,102321.73
2019-05-05T15:42:35.075Z,102320.41
2019-05-05T15:45:05.064Z,102320.59
2019-05-05T15:47:34.478Z,102319.35
2019-05-05T15:50:06.400Z,102322.67
2019-05-05T15:52:35.573Z,102322.59
2019-05-05T15:55:07.046Z,102318.86
2019-05-05T15:57:36.349Z,102316.22
2019-05-05T16:00:08.838Z,102314.79
2019-05-05T16:02:38.038Z,102317.77
2019-05-05T16:05:09.077Z,102320.69
2019-05-05T16:07:38.266Z,102327.61
2019-05-05T16:10:07.936Z,102326.28
2019-05-05T16:12:39.762Z,102321.81
2019-05-05T16:15:28.397Z,102323.53
2019-05-05T16:17:59.346Z,102320.95
2019-05-05T16:20:33.255Z,102325.16
2019-05-05T16:23:11.668Z,102319.75
2019-05-05T16:25:41.793Z,102313.52
2019-05-05T16:28:11.142Z,102317.64
2019-05-05T16:30:40.386Z,102320.20
2019-05-05T16:33:09.586Z,102325.89
2019-05-05T16:35:38.810Z,102320.54
2019-05-05T16:38:08.114Z,102321.13
2019-05-05T16:40:37.359Z,102325.02
2019-05-05T16:43:06.518Z,102325.09
2019-05-05T16:45:35.735Z,102325.16
2019-05-05T16:48:04.964Z,102321.11
2019-05-05T16:50:36.697Z,102336.16
2019-05-05T16:53:06.335Z,102322.44
2019-05-05T16:55:44.864Z,102324.10
2019-05-05T16:58:14.436Z,102340.81
2019-05-05T17:00:44.101Z,102349.10
2019-05-05T17:03:13.628Z,102345.37
2019-05-05T17:05:46.419Z,102349.73
2019-05-05T17:08:14.065Z,102345.16
2019-05-05T17:10:43.626Z,102333.36
2019-05-05T17:13:17.063Z,102339.06
2019-05-05T17:15:50.745Z,102327.86
2019-05-05T17:18:33.607Z,102320.23
2019-05-05T17:21:05.492Z,102318.25
2019-05-05T17:23:34.715Z,102319.79
2019-05-05T17:26:03.896Z,102324.47
2019-05-05T17:28:33.525Z,102321.53
2019-05-05T17:31:02.787Z,102325.84
2019-05-05T17:33:33.764Z,102323.78
2019-05-05T17:36:04.620Z,102318.57
2019-05-05T17:38:34.292Z,102319.76
2019-05-05T17:41:05.313Z,102316.45
2019-05-05T17:43:51.186Z,102320.95
2019-05-05T17:46:24.916Z,102322.16
2019-05-05T17:48:58.512Z,102322.75
2019-05-05T17:51:35.194Z,102324.13
2019-05-05T17:54:08.786Z,102324.14
2019-05-05T17:56:38.013Z,102319.27
2019-05-05T17:59:07.208Z,102319.48
2019-05-05T18:01:36.457Z,102318.64
2019-05-05T18:04:05.680Z,102321.32
2019-05-05T18:06:44.021Z,102325.41
2019-05-05T18:09:15.138Z,102331.21
2019-05-05T18:11:53.470Z,102332.41
2019-05-05T18:14:33.539Z,102330.33
2019-05-05T18:17:04.225Z,102328.17
2019-05-05T18:19:34.017Z,102328.87
2019-05-05T18:22:03.340Z,102331.33
2019-05-05T18:24:33.744Z,102325.74
2019-05-05T18:27:04.551Z,102330.52
2019-05-05T18:29:34.067Z,102328.32
2019-05-05T18:32:04.340Z,102330.94
2019-05-05T18:34:33.764Z,102327.43
2019-05-05T18:37:03.776Z,102329.39
2019-05-05T18:39:34.313Z,102330.81
2019-05-05T18:42:04.627Z,102333.98
2019-05-05T18:44:38.277Z,102335.73
2019-05-05T18:47:18.755Z,102343.09
2019-05-05T18:49:47.495Z,102341.94
2019-05-05T18:52:16.749Z,102336.25
2019-05-05T18:54:45.990Z,102336.08
2019-05-05T18:57:15.373Z,102338.53
2019-05-05T18:59:44.907Z,102338.96
2019-05-05T19:02:21.243Z,102336.88
2019-05-05T19:05:08.387Z,102334.92
2019-05-05T19:07:39.211Z,102337.27
2019-05-05T19:10:09.362Z,102344.33
2019-05-05T19:12:38.708Z,102346.02
2019-05-05T19:15:08.387Z,102348.91
2019-05-05T19:17:37.617Z,102351.89
2019-05-05T19:20:29.034Z,102352.48
2019-05-05T19:23:05.064Z,102354.72
2019-05-05T19:25:35.510Z,102358.37
2019-05-05T19:28:04.732Z,102361.08
2019-05-05T19:30:36.159Z,102362.32
2019-05-05T19:33:05.445Z,102364.00
2019-05-05T19:35:41.903Z,102364.17
2019-05-05T19:38:05.550Z,102362.06
2019-05-05T19:40:34.748Z,102353.20
2019-05-05T19:43:04.797Z,102358.64
2019-05-05T19:45:34.592Z,102360.73
2019-05-05T19:48:05.990Z,102364.23
2019-05-05T19:50:36.510Z,102358.94
2019-05-05T19:53:07.419Z,102362.71
2019-05-05T19:55:36.715Z,102368.36
2019-05-05T19:58:05.885Z,102368.58
2019-05-05T20:00:38.313Z,102366.81
2019-05-05T20:03:06.269Z,102367.48
2019-05-05T20:05:35.489Z,102369.47
2019-05-05T20:08:04.655Z,102367.76
2019-05-05T20:10:34.034Z,102363.59
2019-05-05T20:13:05.023Z,102363.58
2019-05-05T20:15:36.045Z,102362.61
2019-05-05T20:18:05.238Z,102365.02
2019-05-05T20:20:34.449Z,102361.08
2019-05-05T20:23:04.225Z,102363.31
2019-05-05T20:25:34.031Z,102359.63
2019-05-05T20:28:03.914Z,102357.77
2019-05-05T20:30:34.260Z,102361.50
2019-05-05T20:33:05.204Z,102359.81
2019-05-05T20:35:53.865Z,102359.48
2019-05-05T20:38:27.784Z,102359.29
2019-05-05T20:41:07.545Z,102358.97
2019-05-05T20:43:36.829Z,102358.30
2019-05-05T20:46:06.013Z,102358.30
2019-05-05T20:48:35.260Z,102360.12
2019-05-05T20:51:04.901Z,102360.33
2019-05-05T20:53:34.491Z,102359.54
2019-05-05T20:56:04.430Z,102354.71
2019-05-05T20:58:33.827Z,102355.96
2019-05-05T21:01:04.501Z,102357.73
2019-05-05T21:03:34.631Z,102355.93
2019-05-05T21:06:04.602Z,102358.84
2019-05-05T21:08:34.873Z,102354.63
2019-05-05T21:11:04.659Z,102354.36
2019-05-05T21:13:34.342Z,102352.54
2019-05-05T21:16:03.645Z,102353.08
2019-05-05T21:18:34.714Z,102348.37
2019-05-05T21:21:05.410Z,102348.73
2019-05-05T21:23:36.246Z,102348.37
2019-05-05T21:26:07.054Z,102352.99
2019-05-05T21:28:36.350Z,102348.02
2019-05-05T21:31:05.490Z,102348.63
2019-05-05T21:33:35.854Z,102342.26
2019-05-05T21:36:05.112Z,102350.84
2019-05-05T21:38:35.604Z,102349.64
2019-05-05T21:41:05.004Z,102345.05
2019-05-05T21:43:34.276Z,102345.37
2019-05-05T21:46:04.473Z,102338.55
2019-05-05T21:48:34.120Z,102338.23
2019-05-05T21:51:14.295Z,102337.83
2019-05-05T21:53:47.919Z,102334.16
2019-05-05T21:56:36.639Z,102335.53
2019-05-05T21:59:06.264Z,102329.78
2019-05-05T22:01:39.845Z,102332.34
2019-05-05T22:04:06.509Z,102333.85
2019-05-05T22:06:35.712Z,102332.70
2019-05-05T22:09:06.992Z,102337.53
2019-05-05T22:11:36.277Z,102335.07
2019-05-05T22:14:05.538Z,102341.64
2019-05-05T22:16:35.588Z,102338.08
2019-05-05T22:19:06.133Z,102337.82
2019-05-05T22:21:36.973Z,102332.49
2019-05-05T22:24:16.107Z,102333.97
2019-05-05T22:26:45.587Z,102330.86
2019-05-05T22:29:17.040Z,102333.91
2019-05-05T22:31:45.806Z,102333.53
2019-05-05T22:34:14.963Z,102334.27
2019-05-05T22:36:44.814Z,102334.66
2019-05-05T22:39:16.661Z,102331.28
2019-05-05T22:41:45.220Z,102326.81
2019-05-05T22:44:14.397Z,102327.20
2019-05-05T22:46:43.563Z,102327.26
2019-05-05T22:49:14.753Z,102325.84
2019-05-05T22:51:44.700Z,102325.01
2019-05-05T22:54:14.904Z,102325.27
2019-05-05T22:56:44.907Z,102331.20
2019-05-05T22:59:14.171Z,102330.84
2019-05-05T23:01:43.316Z,102321.14
2019-05-05T23:04:23.997Z,102319.41
2019-05-05T23:06:57.926Z,102321.55
2019-05-05T23:09:27.213Z,102322.22
2019-05-05T23:11:56.387Z,102330.92
2019-05-05T23:14:28.687Z,102331.60
2019-05-05T23:17:16.935Z,102330.56
2019-05-05T23:20:04.838Z,102326.89
2019-05-05T23:22:35.896Z,102323.51
2019-05-05T23:25:10.799Z,102322.19
2019-05-05T23:27:50.426Z,102319.27
2019-05-05T23:30:23.884Z,102317.82
2019-05-05T23:32:54.601Z,102319.96
2019-05-05T23:35:24.078Z,102317.71
2019-05-05T23:37:55.287Z,102322.96
2019-05-05T23:40:25.758Z,102315.01
2019-05-05T23:42:54.397Z,102318.80
2019-05-05T23:45:24.897Z,102309.98
2019-05-05T23:47:54.523Z,102308.30
2019-05-05T23:50:24.317Z,102305.73
2019-05-05T23:52:54.445Z,102312.77
2019-05-05T23:55:24.260Z,102311.39
2019-05-05T23:57:54.796Z,102309.05
